createdAt,value
2022-09-30T00:04:58.417Z,7.78
2022-09-30T00:10:01.372Z,7.18
2022-09-30T00:15:06.486Z,7.75
2022-09-30T00:20:10.639Z,7.72
2022-09-30T00:25:13.542Z,7.85
2022-09-30T00:30:17.722Z,7.80
2022-09-30T00:35:22.613Z,7.82
2022-09-30T00:40:25.575Z,8.60
2022-09-30T00:45:30.833Z,8.70
2022-09-30T00:50:42.343Z,8.10
2022-09-30T00:55:51.383Z,8.82
2022-09-30T01:00:56.117Z,9.38
2022-09-30T01:05:59.032Z,9.20
2022-09-30T01:11:07.275Z,8.95
2022-09-30T01:16:31.172Z,10.60
2022-09-30T01:22:01.748Z,11.02
2022-09-30T01:27:23.745Z,11.50
2022-09-30T01:32:42.197Z,10.60
2022-09-30T01:37:57.368Z,11.85
2022-09-30T01:43:11.070Z,12.20
2022-09-30T01:48:22.202Z,11.85
2022-09-30T01:53:32.639Z,12.88
2022-09-30T01:58:43.369Z,11.93
2022-09-30T02:03:52.697Z,12.98
2022-09-30T02:09:00.584Z,12.75
2022-09-30T02:14:09.673Z,13.13
2022-09-30T02:19:20.511Z,13.27
2022-09-30T02:24:26.255Z,13.80
2022-09-30T02:29:36.723Z,13.95
2022-09-30T02:34:45.473Z,14.40
2022-09-30T02:39:53.796Z,13.00
2022-09-30T02:45:02.115Z,13.70
2022-09-30T02:50:13.954Z,12.88
2022-09-30T02:55:22.723Z,12.57
2022-09-30T03:00:25.862Z,11.80
2022-09-30T03:05:30.197Z,12.85
2022-09-30T03:10:34.503Z,12.43
2022-09-30T03:15:48.279Z,12.48
2022-09-30T03:21:09.479Z,12.65
2022-09-30T03:26:23.076Z,12.40
2022-09-30T03:31:35.341Z,13.38
2022-09-30T03:36:44.489Z,13.57
2022-09-30T03:41:54.116Z,14.05
2022-09-30T03:47:01.519Z,14.35
2022-09-30T03:52:10.127Z,14.65
2022-09-30T03:57:14.996Z,13.75
2022-09-30T04:02:17.817Z,14.52
2022-09-30T04:07:21.947Z,13.43
2022-09-30T04:12:24.706Z,13.43
2022-09-30T04:17:27.466Z,12.90
2022-09-30T04:22:31.874Z,13.60
2022-09-30T04:27:34.697Z,14.43
2022-09-30T04:32:37.511Z,14.43
2022-09-30T04:37:44.458Z,14.20
2022-09-30T04:42:47.666Z,14.52
2022-09-30T04:47:50.809Z,14.20
2022-09-30T04:52:55.910Z,14.90
2022-09-30T04:57:58.672Z,15.70
2022-09-30T05:03:01.740Z,14.70
2022-09-30T05:08:07.105Z,14.60
2022-09-30T05:13:10.399Z,13.88
2022-09-30T05:18:13.211Z,15.07
2022-09-30T05:23:20.074Z,14.15
2022-09-30T05:28:23.130Z,14.55
2022-09-30T05:33:25.970Z,14.88
2022-09-30T05:38:30.568Z,15.15
2022-09-30T05:43:33.488Z,15.70
2022-09-30T05:48:36.382Z,14.90
2022-09-30T05:53:41.195Z,15.38
2022-09-30T05:58:44.064Z,16.33
2022-09-30T06:03:47.984Z,15.70
2022-09-30T06:08:52.223Z,15.43
2022-09-30T06:13:55.048Z,15.05
2022-09-30T06:18:57.829Z,13.05
2022-09-30T06:24:02.308Z,13.60
2022-09-30T06:29:05.130Z,15.63
2022-09-30T06:34:08.333Z,12.60
2022-09-30T06:39:13.862Z,10.32
2022-09-30T06:44:16.756Z,8.40
2022-09-30T06:49:19.521Z,7.82
2022-09-30T06:54:23.911Z,4.93
2022-09-30T06:59:27.117Z,5.40
2022-09-30T07:04:30.072Z,4.80
2022-09-30T07:09:34.314Z,5.40
2022-09-30T07:14:37.438Z,6.22
2022-09-30T07:19:40.323Z,5.68
2022-09-30T07:24:44.502Z,5.72
2022-09-30T07:30:08.245Z,5.43
2022-09-30T07:35:10.663Z,5.82
2022-09-30T07:40:15.366Z,7.10
2022-09-30T07:45:19.397Z,7.05
2022-09-30T07:50:22.412Z,7.05
2022-09-30T07:55:26.613Z,8.20
2022-09-30T08:00:42.251Z,8.05
2022-09-30T08:05:45.820Z,8.65
2022-09-30T08:10:50.146Z,10.13
2022-09-30T08:15:52.925Z,8.57
2022-09-30T08:20:55.839Z,11.10
2022-09-30T08:26:04.547Z,11.95
2022-09-30T08:31:09.530Z,7.82
2022-09-30T08:36:14.246Z,7.20
2022-09-30T08:41:35.266Z,7.07
2022-09-30T08:46:47.994Z,10.95
2022-09-30T08:51:52.929Z,11.75
2022-09-30T08:56:58.275Z,8.25
2022-09-30T09:02:12.023Z,5.60
2022-09-30T09:07:27.139Z,5.47
2022-09-30T09:12:42.529Z,5.70
2022-09-30T09:18:24.691Z,5.32
2022-09-30T09:23:32.064Z,4.30
2022-09-30T09:28:43.810Z,4.78
2022-09-30T09:33:47.183Z,4.40
2022-09-30T09:39:04.493Z,4.72
2022-09-30T09:44:16.093Z,3.78
2022-09-30T09:49:32.943Z,3.80
2022-09-30T09:54:41.264Z,3.80
2022-09-30T09:59:58.488Z,4.93
2022-09-30T10:05:03.422Z,5.00
2022-09-30T10:10:23.345Z,8.88
2022-09-30T10:15:28.118Z,4.43
2022-09-30T10:20:33.246Z,3.50
2022-09-30T10:25:36.581Z,7.45
2022-09-30T10:30:47.809Z,4.88
2022-09-30T10:35:55.589Z,5.53
2022-09-30T10:40:59.681Z,6.32
2022-09-30T10:46:25.312Z,3.45
2022-09-30T10:51:37.534Z,2.20
2022-09-30T10:56:44.262Z,2.35
2022-09-30T11:01:57.348Z,2.05
2022-09-30T11:07:11.493Z,2.30
2022-09-30T11:12:21.540Z,2.53
2022-09-30T11:17:30.709Z,2.80
2022-09-30T11:22:43.024Z,2.30
2022-09-30T11:28:01.927Z,2.63
2022-09-30T11:33:30.250Z,2.25
2022-09-30T11:38:51.331Z,2.15
2022-09-30T11:44:05.577Z,1.70
2022-09-30T11:49:25.707Z,2.33
2022-09-30T11:54:43.117Z,1.90
2022-09-30T11:59:51.718Z,2.00
2022-09-30T12:05:00.663Z,2.20
2022-09-30T12:10:09.085Z,2.30
2022-09-30T12:15:17.706Z,3.50
2022-09-30T12:20:27.754Z,3.08
2022-09-30T12:25:37.742Z,4.80
2022-09-30T12:30:41.210Z,4.40
2022-09-30T12:36:05.451Z,4.65
2022-09-30T12:41:25.094Z,3.88
2022-09-30T12:46:48.718Z,5.07
2022-09-30T12:51:58.188Z,4.75
2022-09-30T12:57:03.977Z,4.40
2022-09-30T13:02:09.767Z,4.40
2022-09-30T13:07:21.843Z,4.50
2022-09-30T13:12:30.603Z,4.70
2022-09-30T13:17:36.176Z,4.28
2022-09-30T13:22:57.419Z,3.70
2022-09-30T13:28:30.099Z,4.20
2022-09-30T13:33:44.361Z,4.75
2022-09-30T13:39:07.830Z,4.05
2022-09-30T13:44:17.870Z,4.10
2022-09-30T13:49:25.406Z,3.90
2022-09-30T13:54:35.768Z,4.90
2022-09-30T13:59:49.139Z,4.70
2022-09-30T14:05:06.559Z,4.90
2022-09-30T14:10:28.987Z,4.93
2022-09-30T14:15:49.605Z,5.68
2022-09-30T14:21:06.573Z,6.15
2022-09-30T14:26:30.810Z,6.45
2022-09-30T14:31:33.980Z,6.03
2022-09-30T14:36:36.796Z,7.47
2022-09-30T14:41:42.515Z,5.90
2022-09-30T14:46:49.295Z,5.97
2022-09-30T14:51:52.035Z,6.38
2022-09-30T14:56:56.947Z,7.00
2022-09-30T15:02:01.679Z,5.93
2022-09-30T15:07:07.163Z,6.55
2022-09-30T15:12:15.208Z,5.85
2022-09-30T15:17:19.821Z,7.53
2022-09-30T15:22:23.961Z,6.45
2022-09-30T15:27:32.974Z,5.80
2022-09-30T15:32:37.079Z,5.55
2022-09-30T15:37:40.014Z,5.85
2022-09-30T15:42:47.694Z,5.43
2022-09-30T15:47:56.752Z,5.80
2022-09-30T15:53:05.052Z,5.40
2022-09-30T16:03:37.042Z,5.90
2022-09-30T16:08:44.915Z,7.38
2022-09-30T16:13:50.070Z,8.18
2022-09-30T16:18:54.774Z,9.75
2022-09-30T16:23:57.807Z,7.53
2022-09-30T16:29:08.062Z,6.45
2022-09-30T16:34:20.613Z,9.85
2022-09-30T16:39:23.430Z,8.18
2022-09-30T16:44:27.642Z,7.30
2022-09-30T16:49:30.506Z,6.50
2022-09-30T16:54:33.402Z,6.82
2022-09-30T16:59:37.491Z,7.57
2022-09-30T17:04:40.278Z,9.75
2022-09-30T17:09:44.444Z,10.05
2022-09-30T17:14:49.064Z,12.13
2022-09-30T17:19:51.953Z,9.05
2022-09-30T17:24:54.723Z,8.52
2022-09-30T17:29:58.938Z,9.32
2022-09-30T17:35:01.737Z,12.77
2022-09-30T17:40:25.703Z,9.13
2022-09-30T17:45:29.951Z,13.55
2022-09-30T17:50:34.139Z,9.30
2022-09-30T17:55:36.973Z,9.80
2022-09-30T18:00:41.517Z,7.70
2022-09-30T18:05:45.524Z,8.93
2022-09-30T18:10:48.382Z,6.93
2022-09-30T18:15:52.586Z,10.25
2022-09-30T18:20:55.350Z,9.93
2022-09-30T18:25:58.479Z,11.20
2022-09-30T18:31:08.022Z,9.80
2022-09-30T18:36:10.806Z,8.40
2022-09-30T18:41:13.810Z,9.20
2022-09-30T18:46:20.459Z,10.35
2022-09-30T18:51:24.944Z,6.78
2022-09-30T18:56:31.249Z,6.63
2022-09-30T19:01:36.452Z,8.65
2022-09-30T19:06:40.910Z,9.40
2022-09-30T19:11:46.196Z,6.50
2022-09-30T19:16:51.227Z,7.68
2022-09-30T19:21:55.219Z,6.28
2022-09-30T19:26:58.209Z,9.20
2022-09-30T19:32:02.898Z,7.45
2022-09-30T19:37:07.558Z,6.20
2022-09-30T19:42:15.057Z,6.40
2022-09-30T19:47:19.783Z,5.85
2022-09-30T19:52:22.787Z,7.78
2022-09-30T19:57:25.733Z,6.05
2022-09-30T20:02:30.445Z,6.07
2022-09-30T20:07:34.731Z,6.10
2022-09-30T20:12:37.505Z,6.05
2022-09-30T20:17:41.753Z,5.60
2022-09-30T20:22:44.662Z,5.75
2022-09-30T20:27:51.966Z,5.95
2022-09-30T20:32:56.650Z,6.43
2022-09-30T20:37:59.421Z,5.88
2022-09-30T20:43:04.127Z,5.55
2022-09-30T20:48:09.435Z,4.88
2022-09-30T20:53:13.888Z,5.28
2022-09-30T20:58:16.723Z,4.90
2022-09-30T21:03:21.530Z,5.32
2022-09-30T21:08:24.307Z,5.20
2022-09-30T21:13:27.111Z,5.30
2022-09-30T21:18:31.650Z,4.93
2022-09-30T21:23:35.586Z,4.90
2022-09-30T21:28:38.442Z,5.88
2022-09-30T21:33:43.951Z,6.45
2022-09-30T21:38:46.758Z,6.40
2022-09-30T21:43:49.877Z,5.18
2022-09-30T21:49:05.205Z,5.57
2022-09-30T21:54:13.691Z,5.72
2022-09-30T21:59:17.183Z,6.05
2022-09-30T22:04:21.293Z,6.53
2022-09-30T22:09:24.173Z,6.18
2022-09-30T22:14:27.058Z,6.05
2022-09-30T22:19:31.237Z,6.50
2022-09-30T22:24:36.842Z,5.95
2022-09-30T22:29:39.571Z,5.50
2022-09-30T22:35:00.931Z,4.90
2022-09-30T22:40:03.685Z,5.00
2022-09-30T22:45:07.645Z,4.50
2022-09-30T22:50:11.797Z,4.70
2022-09-30T22:55:15.046Z,4.18
2022-09-30T23:00:18.067Z,3.90
2022-09-30T23:05:22.210Z,4.47
2022-09-30T23:10:25.312Z,3.97
2022-09-30T23:15:28.127Z,3.90
2022-09-30T23:20:32.455Z,3.80
2022-09-30T23:25:35.231Z,3.70
2022-09-30T23:30:38.221Z,3.80
2022-09-30T23:35:47.108Z,3.75
2022-09-30T23:40:50.428Z,3.47
2022-09-30T23:45:53.260Z,3.30
2022-09-30T23:50:57.489Z,3.55
2022-09-30T23:56:03.018Z,3.03
